createdAt,value
2022-11-14T00:02:03.408Z,5.50
2022-11-14T00:04:21.709Z,5.50
2022-11-14T00:08:07.320Z,5.48
2022-11-14T00:14:08.170Z,5.47
2022-11-14T00:16:07.625Z,5.44
2022-11-14T00:20:49.442Z,5.43
2022-11-14T00:22:45.849Z,5.43
2022-11-14T00:25:59.064Z,5.41
2022-11-14T00:27:40.904Z,5.41
2022-11-14T00:29:38.840Z,5.38
2022-11-14T00:31:38.311Z,5.36
2022-11-14T00:36:46.736Z,5.35
2022-11-14T00:38:15.760Z,5.33
2022-11-14T00:44:01.280Z,5.32
2022-11-14T00:46:46.813Z,5.30
2022-11-14T00:49:14.861Z,5.30
2022-11-14T00:50:45.768Z,5.28
2022-11-14T00:53:04.337Z,5.29
2022-11-14T00:55:42.759Z,5.28
2022-11-14T00:58:35.349Z,5.26
2022-11-14T01:00:13.352Z,5.26
2022-11-14T01:03:43.268Z,5.23
2022-11-14T01:06:01.322Z,5.20
2022-11-14T01:08:33.701Z,5.21
2022-11-14T01:12:48.288Z,5.18
2022-11-14T01:14:47.249Z,5.17
2022-11-14T01:16:19.097Z,5.18
2022-11-14T01:17:47.227Z,5.18
2022-11-14T01:21:39.844Z,5.18
2022-11-14T01:23:58.610Z,5.17
2022-11-14T01:28:27.817Z,5.14
2022-11-14T01:30:27.350Z,5.12
2022-11-14T01:31:58.497Z,5.10
2022-11-14T01:34:26.464Z,5.08
2022-11-14T01:35:53.469Z,5.08
2022-11-14T01:41:48.818Z,5.10
2022-11-14T01:45:13.665Z,5.07
2022-11-14T01:46:13.601Z,5.05
2022-11-14T01:47:13.892Z,5.04
2022-11-14T01:51:33.284Z,5.04
2022-11-14T01:53:49.016Z,5.04
2022-11-14T01:55:39.647Z,5.02
2022-11-14T01:59:20.642Z,4.99
2022-11-14T02:02:04.996Z,4.99
2022-11-14T02:04:06.670Z,4.99
2022-11-14T02:06:46.144Z,4.94
2022-11-14T02:10:57.231Z,4.90
2022-11-14T02:12:17.862Z,4.90
2022-11-14T02:14:42.369Z,4.90
2022-11-14T02:18:34.861Z,4.87
2022-11-14T02:23:53.492Z,4.82
2022-11-14T02:35:08.911Z,4.74
2022-11-14T02:43:17.347Z,4.67
2022-11-14T02:48:54.925Z,4.67
2022-11-14T02:52:41.791Z,4.62
2022-11-14T02:54:43.699Z,4.59
2022-11-14T02:57:42.939Z,4.58
2022-11-14T02:59:12.645Z,4.56
2022-11-14T03:01:05.850Z,4.56
2022-11-14T03:03:05.497Z,4.50
2022-11-14T03:08:37.398Z,4.49
2022-11-14T03:10:36.690Z,4.49
2022-11-14T03:14:56.402Z,4.42
2022-11-14T03:17:42.206Z,4.40
2022-11-14T03:21:20.121Z,4.38
2022-11-14T03:22:51.921Z,4.37
2022-11-14T03:24:40.034Z,4.37
2022-11-14T03:29:56.580Z,4.34
2022-11-14T03:35:28.261Z,4.32
2022-11-14T03:39:34.727Z,4.31
2022-11-14T03:41:41.699Z,4.28
2022-11-14T03:44:05.216Z,4.24
2022-11-14T03:47:48.149Z,4.20
2022-11-14T03:50:32.805Z,4.22
2022-11-14T03:53:01.581Z,4.19
2022-11-14T03:57:48.274Z,4.20
2022-11-14T04:05:33.567Z,4.19
2022-11-14T04:07:03.833Z,4.20
2022-11-14T04:09:58.710Z,4.19
2022-11-14T04:13:17.038Z,4.16
2022-11-14T04:17:27.318Z,4.13
2022-11-14T04:20:35.214Z,4.12
2022-11-14T04:41:11.913Z,4.02
2022-11-14T04:44:28.828Z,4.02
2022-11-14T04:47:48.715Z,4.01
2022-11-14T04:49:18.589Z,4.01
2022-11-14T04:50:46.569Z,4.01
2022-11-14T04:52:47.376Z,3.99
2022-11-14T04:55:53.670Z,4.01
2022-11-14T04:58:53.970Z,3.98
2022-11-14T05:01:11.664Z,3.94
2022-11-14T05:08:07.978Z,3.91
2022-11-14T05:18:33.803Z,3.86
2022-11-14T05:23:30.946Z,3.83
2022-11-14T05:31:08.118Z,3.78
2022-11-14T05:33:00.792Z,3.78
2022-11-14T05:35:18.598Z,3.78
2022-11-14T05:37:17.937Z,3.80
2022-11-14T05:40:15.437Z,3.78
2022-11-14T05:47:24.583Z,3.77
2022-11-14T05:49:52.550Z,3.77
2022-11-14T05:54:31.703Z,3.77
2022-11-14T05:57:58.832Z,3.80
2022-11-14T06:00:25.852Z,3.78
2022-11-14T06:01:25.824Z,3.78
2022-11-14T06:02:46.824Z,3.77
2022-11-14T06:06:43.191Z,3.77
2022-11-14T06:10:58.103Z,3.80
2022-11-14T06:13:24.936Z,3.77
2022-11-14T06:16:07.412Z,3.80
2022-11-14T06:18:05.354Z,3.80
2022-11-14T06:19:34.326Z,3.80
2022-11-14T06:21:03.207Z,3.78
2022-11-14T06:22:52.985Z,3.78
2022-11-14T06:26:09.052Z,3.77
2022-11-14T06:29:32.718Z,3.77
2022-11-14T06:30:58.250Z,3.77
2022-11-14T06:32:27.919Z,3.78
2022-11-14T06:33:57.105Z,3.78
2022-11-14T06:35:26.273Z,3.78
2022-11-14T06:37:55.423Z,3.78
2022-11-14T06:43:10.559Z,3.77
2022-11-14T06:47:04.449Z,3.76
2022-11-14T06:58:05.802Z,3.78
2022-11-14T06:59:55.468Z,3.77
2022-11-14T07:01:27.326Z,3.78
2022-11-14T07:05:55.424Z,3.77
2022-11-14T07:08:26.315Z,3.77
2022-11-14T07:10:28.161Z,3.77
2022-11-14T07:15:07.348Z,3.76
2022-11-14T07:16:39.199Z,3.77
2022-11-14T07:20:17.805Z,3.77
2022-11-14T07:22:17.146Z,3.77
2022-11-14T07:25:49.754Z,3.77
2022-11-14T07:29:38.239Z,3.77
2022-11-14T07:31:08.022Z,3.78
2022-11-14T07:33:07.187Z,3.80
2022-11-14T07:34:35.523Z,3.80
2022-11-14T07:37:41.744Z,3.81
2022-11-14T07:40:10.368Z,3.83
2022-11-14T07:41:42.245Z,3.83
2022-11-14T07:44:41.115Z,3.83
2022-11-14T07:46:31.875Z,3.84
2022-11-14T07:47:59.791Z,3.86
2022-11-14T07:52:20.143Z,3.88
2022-11-14T07:56:02.270Z,3.91
2022-11-14T07:57:28.569Z,3.94
2022-11-14T08:04:38.391Z,3.98
2022-11-14T08:06:41.426Z,4.01
2022-11-14T08:08:44.959Z,4.01
2022-11-14T08:12:03.534Z,4.05
2022-11-14T08:14:13.218Z,4.08
2022-11-14T08:15:23.427Z,4.08
2022-11-14T08:17:20.487Z,4.12
2022-11-14T08:18:53.329Z,4.13
2022-11-14T08:21:11.245Z,4.14
2022-11-14T08:22:41.607Z,4.16
2022-11-14T08:24:29.904Z,4.20
2022-11-14T08:27:59.061Z,4.28
2022-11-14T08:30:56.841Z,4.34
2022-11-14T08:33:28.581Z,4.40
2022-11-14T08:36:46.047Z,4.48
2022-11-14T08:38:13.945Z,4.49
2022-11-14T08:43:44.303Z,4.62
2022-11-14T08:46:12.830Z,4.67
2022-11-14T08:50:12.658Z,4.78
2022-11-14T08:58:54.499Z,4.99
2022-11-14T09:00:24.482Z,5.04
2022-11-14T09:01:53.648Z,5.07
2022-11-14T09:03:23.630Z,5.08
2022-11-14T09:04:52.469Z,5.11
2022-11-14T09:06:51.288Z,5.14
2022-11-14T09:08:53.120Z,5.18
2022-11-14T09:10:23.010Z,5.23
2022-11-14T09:12:12.110Z,5.28
2022-11-14T09:18:03.287Z,5.46
2022-11-14T09:20:35.202Z,5.50
2022-11-14T09:22:03.302Z,5.51
2022-11-14T09:23:32.684Z,5.56
2022-11-14T09:25:04.096Z,5.61
2022-11-14T09:27:00.655Z,5.64
2022-11-14T09:31:04.756Z,5.75
2022-11-14T09:32:34.714Z,5.80
2022-11-14T09:35:22.805Z,5.89
2022-11-14T09:38:44.715Z,6.01
2022-11-14T09:41:09.128Z,6.09
2022-11-14T09:43:37.591Z,6.27
2022-11-14T09:46:24.654Z,6.42
2022-11-14T09:47:53.533Z,6.45
2022-11-14T09:50:26.146Z,6.60
2022-11-14T09:53:12.377Z,6.78
2022-11-14T09:55:09.741Z,6.87
2022-11-14T09:57:09.647Z,6.97
2022-11-14T09:58:41.486Z,7.05
2022-11-14T10:02:08.947Z,7.33
2022-11-14T10:04:58.482Z,7.70
2022-11-14T10:06:28.414Z,7.88
2022-11-14T10:10:08.664Z,8.56
2022-11-14T10:12:05.581Z,9.29
2022-11-14T10:14:56.141Z,10.05
2022-11-14T10:17:51.054Z,10.92
2022-11-14T10:20:13.024Z,11.69
2022-11-14T10:22:10.081Z,12.15
2022-11-14T10:24:13.086Z,12.58
2022-11-14T10:26:02.540Z,12.80
2022-11-14T10:28:05.207Z,13.12
2022-11-14T10:29:31.518Z,13.92
2022-11-14T10:32:21.513Z,15.44
2022-11-14T10:34:20.416Z,16.32
2022-11-14T10:43:03.787Z,18.45
2022-11-14T10:45:30.091Z,18.63
2022-11-14T10:48:30.960Z,18.96
2022-11-14T10:54:39.100Z,19.30
2022-11-14T10:56:37.902Z,19.67
2022-11-14T11:02:57.943Z,20.03
2022-11-14T11:05:08.142Z,19.88
2022-11-14T11:07:40.568Z,19.95
2022-11-14T11:11:02.467Z,20.02
2022-11-14T11:16:08.103Z,19.51
2022-11-14T11:18:43.130Z,19.63
2022-11-14T11:22:52.254Z,19.59
2022-11-14T11:24:21.540Z,19.58
2022-11-14T11:26:20.317Z,19.56
2022-11-14T11:27:49.223Z,19.40
2022-11-14T11:30:18.394Z,19.56
2022-11-14T11:32:36.326Z,19.52
2022-11-14T11:34:55.248Z,19.14
2022-11-14T11:39:16.541Z,18.93
2022-11-14T11:41:33.191Z,18.40
2022-11-14T11:44:04.113Z,18.34
2022-11-14T11:45:35.873Z,18.28
2022-11-14T11:47:03.534Z,18.23
2022-11-14T11:48:34.375Z,18.16
2022-11-14T11:53:33.718Z,18.43
2022-11-14T11:56:35.413Z,18.34
2022-11-14T11:58:23.872Z,18.23
2022-11-14T11:59:36.372Z,18.11
2022-11-14T12:01:34.609Z,17.44
2022-11-14T12:03:03.611Z,16.65
2022-11-14T12:05:31.539Z,15.27
2022-11-14T12:08:03.210Z,14.17
2022-11-14T12:09:55.622Z,13.81
2022-11-14T12:11:01.197Z,13.50
2022-11-14T12:12:30.129Z,13.18
2022-11-14T12:13:59.994Z,12.97
2022-11-14T12:15:31.837Z,12.80
2022-11-14T12:17:49.571Z,12.45
2022-11-14T12:21:30.439Z,12.04
2022-11-14T12:27:21.984Z,11.78
2022-11-14T12:31:00.196Z,11.63
2022-11-14T12:35:39.358Z,11.04
2022-11-14T12:38:49.685Z,10.84
2022-11-14T12:40:46.683Z,10.89
2022-11-14T12:44:04.347Z,10.72
2022-11-14T12:45:54.908Z,10.61
2022-11-14T12:47:44.585Z,10.44
2022-11-14T12:50:13.455Z,10.35
2022-11-14T12:52:32.097Z,10.30
2022-11-14T12:55:23.966Z,10.16
2022-11-14T12:56:58.844Z,10.23
2022-11-14T12:58:29.670Z,10.22
2022-11-14T13:00:27.913Z,10.26
2022-11-14T13:01:57.815Z,10.28
2022-11-14T13:05:26.011Z,10.23
2022-11-14T13:08:34.308Z,10.28
2022-11-14T13:11:34.272Z,10.31
2022-11-14T13:14:02.257Z,10.20
2022-11-14T13:15:31.458Z,10.20
2022-11-14T13:18:01.303Z,10.20
2022-11-14T13:19:30.219Z,10.20
2022-11-14T13:21:01.080Z,10.20
2022-11-14T13:22:01.040Z,10.19
2022-11-14T13:23:01.031Z,10.19
2022-11-14T13:24:01.032Z,10.20
2022-11-14T13:25:32.921Z,10.23
2022-11-14T13:28:00.149Z,10.23
2022-11-14T13:30:29.121Z,10.26
2022-11-14T13:32:38.931Z,10.25
2022-11-14T13:34:36.872Z,10.28
2022-11-14T13:39:32.913Z,10.28
2022-11-14T13:43:02.816Z,10.23
2022-11-14T13:44:31.748Z,10.25
2022-11-14T13:46:02.596Z,10.26
2022-11-14T13:47:30.101Z,10.25
2022-11-14T13:49:00.076Z,10.23
2022-11-14T13:50:28.974Z,10.25
2022-11-14T13:52:17.668Z,10.25
2022-11-14T13:54:53.488Z,10.26
2022-11-14T13:57:41.406Z,10.30
2022-11-14T13:59:03.419Z,10.33
2022-11-14T13:59:41.337Z,10.31
2022-11-14T14:00:41.324Z,10.31
2022-11-14T14:02:10.390Z,10.31
2022-11-14T14:04:14.371Z,10.28
2022-11-14T14:06:43.873Z,10.26
2022-11-14T14:08:14.890Z,10.25
2022-11-14T14:10:12.554Z,10.22
2022-11-14T14:14:36.687Z,10.15
2022-11-14T14:16:28.040Z,10.13
2022-11-14T14:18:49.264Z,10.09
2022-11-14T14:20:19.248Z,10.07
2022-11-14T14:21:48.787Z,10.02
2022-11-14T14:25:56.208Z,9.99
2022-11-14T14:29:04.917Z,10.01
2022-11-14T14:31:39.906Z,9.99
2022-11-14T14:33:08.752Z,9.98
2022-11-14T14:40:38.255Z,9.94
2022-11-14T14:43:06.996Z,9.95
2022-11-14T14:44:37.029Z,9.95
2022-11-14T14:49:04.640Z,9.94
2022-11-14T14:53:09.657Z,9.95
2022-11-14T14:54:37.900Z,9.92
2022-11-14T14:56:29.772Z,9.94
2022-11-14T14:57:57.813Z,9.91
2022-11-14T15:01:10.897Z,9.92
2022-11-14T15:03:10.648Z,9.94
2022-11-14T15:08:34.291Z,9.94
2022-11-14T15:11:43.589Z,9.94
2022-11-14T15:13:16.014Z,9.94
2022-11-14T15:15:05.703Z,9.95
2022-11-14T15:18:03.399Z,9.95
2022-11-14T15:26:46.785Z,9.92
2022-11-14T15:28:44.426Z,9.94
2022-11-14T15:31:34.142Z,9.94
2022-11-14T15:33:43.309Z,9.94
2022-11-14T15:35:42.416Z,9.92
2022-11-14T15:37:11.696Z,9.92
2022-11-14T15:39:03.889Z,9.94
2022-11-14T15:40:36.787Z,9.92
2022-11-14T15:42:23.387Z,9.92
2022-11-14T15:45:11.158Z,9.92
2022-11-14T15:46:59.845Z,9.94
2022-11-14T15:49:28.656Z,9.92
2022-11-14T15:52:38.605Z,9.89
2022-11-14T15:54:09.484Z,9.89
2022-11-14T15:57:37.658Z,9.89
2022-11-14T16:01:28.421Z,9.87
2022-11-14T16:04:00.580Z,9.86
2022-11-14T16:05:59.758Z,9.84
2022-11-14T16:09:07.109Z,9.84
2022-11-14T16:10:37.024Z,9.84
2022-11-14T16:24:11.416Z,9.77
2022-11-14T16:25:41.513Z,9.77
2022-11-14T16:27:13.367Z,9.76
2022-11-14T16:28:40.408Z,9.76
2022-11-14T16:30:32.047Z,9.76
2022-11-14T16:32:19.150Z,9.76
2022-11-14T16:34:08.893Z,9.74
2022-11-14T16:38:33.016Z,9.74
2022-11-14T16:40:00.383Z,9.73
2022-11-14T16:41:31.237Z,9.73
2022-11-14T16:43:21.202Z,9.74
2022-11-14T16:45:23.616Z,9.73
2022-11-14T16:48:03.979Z,9.74
2022-11-14T16:50:26.871Z,9.73
2022-11-14T16:53:51.932Z,9.76
2022-11-14T16:57:22.109Z,9.73
2022-11-14T17:02:17.679Z,9.72
2022-11-14T17:04:40.066Z,9.73
2022-11-14T17:06:10.401Z,9.73
2022-11-14T17:09:18.810Z,9.72
2022-11-14T17:10:55.554Z,9.72
2022-11-14T17:12:21.040Z,9.72
2022-11-14T17:14:20.356Z,9.69
2022-11-14T17:16:20.986Z,9.66
2022-11-14T17:18:12.911Z,9.69
2022-11-14T17:19:42.806Z,9.68
2022-11-14T17:20:42.754Z,9.69
2022-11-14T17:21:42.761Z,9.68
2022-11-14T17:22:42.754Z,9.68
2022-11-14T17:24:13.985Z,9.68
2022-11-14T17:25:43.982Z,9.68
2022-11-14T17:27:13.915Z,9.66
2022-11-14T17:28:44.802Z,9.68
2022-11-14T17:30:14.526Z,9.69
2022-11-14T17:32:16.203Z,9.68
2022-11-14T17:35:24.263Z,9.68
2022-11-14T17:36:53.612Z,9.66
2022-11-14T17:40:23.350Z,9.65
2022-11-14T17:45:15.405Z,9.65
2022-11-14T17:47:13.843Z,9.65
2022-11-14T17:52:08.689Z,9.62
2022-11-14T17:54:41.503Z,9.62
2022-11-14T17:57:11.352Z,9.59
2022-11-14T17:59:42.681Z,9.61
2022-11-14T18:01:30.994Z,9.59
2022-11-14T18:04:05.754Z,9.59
2022-11-14T18:05:36.555Z,9.61
2022-11-14T18:07:32.523Z,9.61
2022-11-14T18:09:01.480Z,9.58
2022-11-14T18:10:31.352Z,9.59
2022-11-14T18:12:31.505Z,9.59
2022-11-14T18:14:20.257Z,9.59
2022-11-14T18:17:12.782Z,9.59
2022-11-14T18:19:06.059Z,9.58
2022-11-14T18:20:35.116Z,9.59
2022-11-14T18:22:04.251Z,9.58
2022-11-14T18:24:05.028Z,9.56
2022-11-14T18:27:34.481Z,9.56
2022-11-14T18:29:03.638Z,9.56
2022-11-14T18:31:01.166Z,9.56
2022-11-14T18:32:50.191Z,9.55
2022-11-14T18:34:23.335Z,9.55
2022-11-14T18:36:28.040Z,9.54
2022-11-14T18:37:54.173Z,9.55
2022-11-14T18:41:32.697Z,9.55
2022-11-14T18:43:01.139Z,9.55
2022-11-14T18:44:32.997Z,9.54
2022-11-14T18:46:34.397Z,9.54
2022-11-14T18:49:04.799Z,9.55
2022-11-14T18:53:51.680Z,9.55
2022-11-14T18:56:52.319Z,9.55
2022-11-14T18:58:23.688Z,9.54
2022-11-14T19:02:44.991Z,9.51
2022-11-14T19:19:50.813Z,9.47
2022-11-14T19:29:21.766Z,9.44
2022-11-14T19:32:46.425Z,9.43
2022-11-14T19:34:20.004Z,9.41
2022-11-14T19:37:00.451Z,9.41
2022-11-14T19:38:29.530Z,9.43
2022-11-14T19:39:57.402Z,9.41
2022-11-14T19:43:33.992Z,9.41
2022-11-14T19:48:49.484Z,9.41
2022-11-14T19:57:45.946Z,9.36
2022-11-14T20:02:01.754Z,9.36
2022-11-14T20:06:32.090Z,9.32
2022-11-14T20:11:22.325Z,9.31
2022-11-14T20:25:22.258Z,9.29
2022-11-14T20:26:51.674Z,9.29
2022-11-14T20:28:36.442Z,9.29
2022-11-14T20:30:05.472Z,9.31
2022-11-14T20:35:19.375Z,9.31
2022-11-14T20:37:09.900Z,9.29
2022-11-14T20:38:58.133Z,9.29
2022-11-14T20:40:35.265Z,9.28
2022-11-14T20:44:26.450Z,9.28
2022-11-14T20:45:58.342Z,9.26
2022-11-14T20:48:27.183Z,9.26
2022-11-14T20:50:33.513Z,9.23
2022-11-14T21:02:51.190Z,9.14
2022-11-14T21:04:20.066Z,9.11
2022-11-14T21:06:18.895Z,9.11
2022-11-14T21:09:17.795Z,9.10
2022-11-14T21:10:44.828Z,9.08
2022-11-14T21:12:14.617Z,9.06
2022-11-14T21:14:43.475Z,9.08
2022-11-14T21:17:11.764Z,9.06
2022-11-14T21:24:20.237Z,8.95
2022-11-14T21:26:19.290Z,8.89
2022-11-14T21:27:48.189Z,8.87
2022-11-14T21:29:19.491Z,8.81
2022-11-14T21:35:32.555Z,8.66
2022-11-14T21:38:48.510Z,8.56
2022-11-14T21:42:58.523Z,8.48
2022-11-14T21:46:06.124Z,8.41
2022-11-14T21:50:16.221Z,8.31
2022-11-14T22:00:21.589Z,8.10
2022-11-14T22:02:13.365Z,8.06
2022-11-14T22:04:59.898Z,8.00
2022-11-14T22:08:23.235Z,7.93
2022-11-14T22:10:12.003Z,7.90
2022-11-14T22:12:08.954Z,7.85
2022-11-14T22:14:57.217Z,7.80
2022-11-14T22:17:53.794Z,7.75
2022-11-14T22:19:25.901Z,7.73
2022-11-14T22:20:53.656Z,7.72
2022-11-14T22:22:27.048Z,7.69
2022-11-14T22:24:23.592Z,7.63
2022-11-14T22:28:53.429Z,7.57
2022-11-14T22:32:04.105Z,7.56
2022-11-14T22:33:53.383Z,7.54
2022-11-14T22:36:11.794Z,7.54
2022-11-14T22:41:38.186Z,7.60
2022-11-14T22:43:34.230Z,7.61
2022-11-14T22:45:34.177Z,7.63
2022-11-14T22:49:06.626Z,7.67
2022-11-14T22:50:33.775Z,7.69
2022-11-14T22:56:46.318Z,7.75
2022-11-14T22:58:45.493Z,7.76
2022-11-14T23:02:11.973Z,7.79
2022-11-14T23:05:38.886Z,7.80
2022-11-14T23:07:08.860Z,7.82
2022-11-14T23:12:05.083Z,7.83
2022-11-14T23:13:35.433Z,7.87
2022-11-14T23:16:34.041Z,7.87
2022-11-14T23:20:34.633Z,7.91
2022-11-14T23:22:04.566Z,7.93
2022-11-14T23:24:03.665Z,7.91
2022-11-14T23:26:32.641Z,7.95
2022-11-14T23:29:01.586Z,7.98
2022-11-14T23:31:55.281Z,8.01
2022-11-14T23:34:52.148Z,8.03
2022-11-14T23:37:43.693Z,8.06
2022-11-14T23:41:47.097Z,8.09
2022-11-14T23:46:06.831Z,8.10
2022-11-14T23:47:59.467Z,8.12
2022-11-14T23:49:27.529Z,8.13
2022-11-14T23:53:23.328Z,8.15
2022-11-14T23:56:26.457Z,8.16
